Terminal Aerodrome Forecast
Issued by NWS

Home | Current Version | Previous Version | Text Only | Print | Product List | Glossary On
Versions: 1 2 3 4 5 6 7 8 9 10 11 12 13 14 15 16
000
FTUS43 KBIS 261700
TAFJMS
TAF
KJMS 261736Z 2618/2718 01011KT P6SM BKN045 OVC060
     FM262100 36006KT P6SM SCT150
     FM270600 VRB03KT P6SM SKC
     FM271500 17008KT P6SM SCT080=

USA.gov is the U.S. government's official web portal to all federal, state and local government web resources and services.